Harper, Washington
Current Conditions -  °F | °C
As of 4:35 PM on Saturday 25 Oct 2014 (Local Time) from KPWT Reporting Station
Overcast Overcast  
Wind Chill: 55°   Ceiling: 3600
Heat Index: 55°   Visibility: 10mi
Dew Point: 54°   Wind: 10mph
Humidity: 94%   Direction: 170°S
Pressure: 29.28"   Gusts: NA
Location:  47.5378°N, 122.589°W
Report Text: KPWT 252335Z AUTO 17009KT 140V200 10SM BKN036 OVC044 13/12 A2928 RMK AO1
Loading
Personal Weather Stations






























Interactive Weather Map
Tropical Storm Tracking
New forecast layout! Learn more

10-Day Weather Forecast

Advertisements
Track Severe Weather on mobile